sensor_id;sensor_type;location;lat;lon;timestamp;temperature;humidity
5711;DHT22;61291;52.524;13.422;2023-07-02T00:02:24;18.40;99.90
5711;DHT22;61291;52.524;13.422;2023-07-02T00:04:49;18.40;99.90
5711;DHT22;61291;52.524;13.422;2023-07-02T00:07:15;18.40;99.90
5711;DHT22;61291;52.524;13.422;2023-07-02T00:09:41;18.40;99.90
5711;DHT22;61291;52.524;13.422;2023-07-02T00:12:07;18.50;99.90
5711;DHT22;61291;52.524;13.422;2023-07-02T00:14:32;18.50;99.90
5711;DHT22;61291;52.524;13.422;2023-07-02T00:16:58;18.50;99.90
5711;DHT22;61291;52.524;13.422;2023-07-02T00:19:24;18.50;99.90
5711;DHT22;61291;52.524;13.422;2023-07-02T00:21:49;18.40;99.90
5711;DHT22;61291;52.524;13.422;2023-07-02T00:24:15;18.40;99.90
5711;DHT22;61291;52.524;13.422;2023-07-02T00:26:41;18.40;99.90
5711;DHT22;61291;52.524;13.422;2023-07-02T00:29:07;18.30;99.90
5711;DHT22;61291;52.524;13.422;2023-07-02T00:31:35;18.30;99.90
5711;DHT22;61291;52.524;13.422;2023-07-02T00:34:01;18.20;99.90
5711;DHT22;61291;52.524;13.422;2023-07-02T00:36:30;18.20;99.90
5711;DHT22;61291;52.524;13.422;2023-07-02T00:38:56;18.10;99.90
5711;DHT22;61291;52.524;13.422;2023-07-02T00:41:23;18.10;99.90
5711;DHT22;61291;52.524;13.422;2023-07-02T00:43:48;18.00;99.90
5711;DHT22;61291;52.524;13.422;2023-07-02T00:46:15;18.00;99.90
5711;DHT22;61291;52.524;13.422;2023-07-02T00:48:43;18.00;99.90
5711;DHT22;61291;52.524;13.422;2023-07-02T00:51:17;18.00;99.90
5711;DHT22;61291;52.524;13.422;2023-07-02T00:53:48;18.00;99.90
5711;DHT22;61291;52.524;13.422;2023-07-02T00:56:14;18.00;99.90
5711;DHT22;61291;52.524;13.422;2023-07-02T00:58:44;17.90;99.90
5711;DHT22;61291;52.524;13.422;2023-07-02T01:01:15;18.00;99.90
5711;DHT22;61291;52.524;13.422;2023-07-02T01:03:58;18.00;99.90
5711;DHT22;61291;52.524;13.422;2023-07-02T01:06:29;18.10;99.90
5711;DHT22;61291;52.524;13.422;2023-07-02T01:08:57;18.00;99.90
5711;DHT22;61291;52.524;13.422;2023-07-02T01:11:26;18.10;99.90
5711;DHT22;61291;52.524;13.422;2023-07-02T01:13:54;18.10;99.90
5711;DHT22;61291;52.524;13.422;2023-07-02T01:16:20;18.10;99.90
5711;DHT22;61291;52.524;13.422;2023-07-02T01:18:48;18.10;99.90
5711;DHT22;61291;52.524;13.422;2023-07-02T01:21:16;18.00;99.90
5711;DHT22;61291;52.524;13.422;2023-07-02T01:23:42;18.00;99.90
5711;DHT22;61291;52.524;13.422;2023-07-02T01:26:08;18.00;99.90
5711;DHT22;61291;52.524;13.422;2023-07-02T01:28:36;17.90;99.90
5711;DHT22;61291;52.524;13.422;2023-07-02T01:31:04;17.90;99.90
5711;DHT22;61291;52.524;13.422;2023-07-02T01:33:30;17.90;99.90
5711;DHT22;61291;52.524;13.422;2023-07-02T01:35:55;17.90;99.90
5711;DHT22;61291;52.524;13.422;2023-07-02T01:38:21;17.90;99.90
5711;DHT22;61291;52.524;13.422;2023-07-02T01:40:47;17.90;99.90
5711;DHT22;61291;52.524;13.422;2023-07-02T01:43:13;17.80;99.90
5711;DHT22;61291;52.524;13.422;2023-07-02T01:45:40;17.80;99.90
5711;DHT22;61291;52.524;13.422;2023-07-02T01:48:06;17.80;99.90
5711;DHT22;61291;52.524;13.422;2023-07-02T01:50:31;17.70;99.90
5711;DHT22;61291;52.524;13.422;2023-07-02T01:52:57;17.90;99.90
5711;DHT22;61291;52.524;13.422;2023-07-02T01:55:22;17.90;99.90
5711;DHT22;61291;52.524;13.422;2023-07-02T01:57:48;18.00;99.90
5711;DHT22;61291;52.524;13.422;2023-07-02T02:00:13;18.00;99.90
5711;DHT22;61291;52.524;13.422;2023-07-02T02:02:39;18.00;99.90
5711;DHT22;61291;52.524;13.422;2023-07-02T02:05:04;17.90;99.90
5711;DHT22;61291;52.524;13.422;2023-07-02T02:07:30;17.90;99.90
5711;DHT22;61291;52.524;13.422;2023-07-02T02:09:56;17.90;99.90
5711;DHT22;61291;52.524;13.422;2023-07-02T02:12:21;17.80;99.90
5711;DHT22;61291;52.524;13.422;2023-07-02T02:14:47;17.80;99.90
5711;DHT22;61291;52.524;13.422;2023-07-02T02:17:12;17.80;99.90
5711;DHT22;61291;52.524;13.422;2023-07-02T02:19:39;17.70;99.90
5711;DHT22;61291;52.524;13.422;2023-07-02T02:22:05;17.70;99.90
5711;DHT22;61291;52.524;13.422;2023-07-02T02:24:30;17.70;99.90
5711;DHT22;61291;52.524;13.422;2023-07-02T02:26:55;17.70;99.90
5711;DHT22;61291;52.524;13.422;2023-07-02T02:29:21;17.70;99.90
5711;DHT22;61291;52.524;13.422;2023-07-02T02:31:46;17.70;99.90
5711;DHT22;61291;52.524;13.422;2023-07-02T02:34:12;17.70;99.90
5711;DHT22;61291;52.524;13.422;2023-07-02T02:36:38;17.70;99.90
5711;DHT22;61291;52.524;13.422;2023-07-02T02:39:03;17.80;99.90
5711;DHT22;61291;52.524;13.422;2023-07-02T02:41:30;17.70;99.90
5711;DHT22;61291;52.524;13.422;2023-07-02T02:43:56;17.70;99.90
5711;DHT22;61291;52.524;13.422;2023-07-02T02:46:22;17.70;99.90
5711;DHT22;61291;52.524;13.422;2023-07-02T02:48:48;17.60;99.90
5711;DHT22;61291;52.524;13.422;2023-07-02T02:51:13;17.60;99.90
5711;DHT22;61291;52.524;13.422;2023-07-02T02:53:39;17.60;99.90
5711;DHT22;61291;52.524;13.422;2023-07-02T02:56:04;17.60;99.90
5711;DHT22;61291;52.524;13.422;2023-07-02T02:58:30;17.60;99.90
5711;DHT22;61291;52.524;13.422;2023-07-02T03:00:55;17.60;99.90
5711;DHT22;61291;52.524;13.422;2023-07-02T03:03:22;17.60;99.90
5711;DHT22;61291;52.524;13.422;2023-07-02T03:05:47;17.60;99.90
5711;DHT22;61291;52.524;13.422;2023-07-02T03:08:14;17.70;99.90
5711;DHT22;61291;52.524;13.422;2023-07-02T03:10:39;17.70;99.90
5711;DHT22;61291;52.524;13.422;2023-07-02T03:13:05;17.70;99.90
5711;DHT22;61291;52.524;13.422;2023-07-02T03:15:30;17.70;99.90
5711;DHT22;61291;52.524;13.422;2023-07-02T03:17:56;17.70;99.90
5711;DHT22;61291;52.524;13.422;2023-07-02T03:20:22;17.70;99.90
5711;DHT22;61291;52.524;13.422;2023-07-02T03:22:47;17.70;99.90
5711;DHT22;61291;52.524;13.422;2023-07-02T03:25:13;17.70;99.90
5711;DHT22;61291;52.524;13.422;2023-07-02T03:27:39;17.70;99.90
5711;DHT22;61291;52.524;13.422;2023-07-02T03:30:05;17.80;99.90
5711;DHT22;61291;52.524;13.422;2023-07-02T03:32:31;17.80;99.90
5711;DHT22;61291;52.524;13.422;2023-07-02T03:34:56;17.80;99.90
5711;DHT22;61291;52.524;13.422;2023-07-02T03:37:22;17.80;99.90
5711;DHT22;61291;52.524;13.422;2023-07-02T03:39:47;17.80;99.90
5711;DHT22;61291;52.524;13.422;2023-07-02T03:42:13;17.80;99.90
5711;DHT22;61291;52.524;13.422;2023-07-02T03:44:38;17.80;99.90
5711;DHT22;61291;52.524;13.422;2023-07-02T03:47:04;17.80;99.90
5711;DHT22;61291;52.524;13.422;2023-07-02T03:49:29;17.80;99.90
5711;DHT22;61291;52.524;13.422;2023-07-02T03:51:55;17.80;99.90
5711;DHT22;61291;52.524;13.422;2023-07-02T03:54:20;17.90;99.90
5711;DHT22;61291;52.524;13.422;2023-07-02T03:56:46;17.90;99.90
5711;DHT22;61291;52.524;13.422;2023-07-02T03:59:11;17.90;99.90
5711;DHT22;61291;52.524;13.422;2023-07-02T04:01:36;17.90;99.90
5711;DHT22;61291;52.524;13.422;2023-07-02T04:04:02;17.90;99.90
5711;DHT22;61291;52.524;13.422;2023-07-02T04:06:28;18.00;99.90
5711;DHT22;61291;52.524;13.422;2023-07-02T04:08:53;18.00;99.90
5711;DHT22;61291;52.524;13.422;2023-07-02T04:11:19;18.00;99.90
5711;DHT22;61291;52.524;13.422;2023-07-02T04:13:44;18.10;99.90
5711;DHT22;61291;52.524;13.422;2023-07-02T04:16:10;18.20;99.90
5711;DHT22;61291;52.524;13.422;2023-07-02T04:18:35;18.30;99.90
5711;DHT22;61291;52.524;13.422;2023-07-02T04:21:02;18.40;99.90
5711;DHT22;61291;52.524;13.422;2023-07-02T04:23:28;18.60;99.90
5711;DHT22;61291;52.524;13.422;2023-07-02T04:25:53;18.70;99.90
5711;DHT22;61291;52.524;13.422;2023-07-02T04:28:18;18.80;99.90
5711;DHT22;61291;52.524;13.422;2023-07-02T04:30:44;18.80;99.90
5711;DHT22;61291;52.524;13.422;2023-07-02T04:33:09;18.80;99.90
5711;DHT22;61291;52.524;13.422;2023-07-02T04:35:39;18.80;99.90
5711;DHT22;61291;52.524;13.422;2023-07-02T04:38:04;19.10;99.90
5711;DHT22;61291;52.524;13.422;2023-07-02T04:40:30;19.50;99.90
5711;DHT22;61291;52.524;13.422;2023-07-02T04:42:55;19.90;99.90
5711;DHT22;61291;52.524;13.422;2023-07-02T04:45:24;20.10;99.90
5711;DHT22;61291;52.524;13.422;2023-07-02T04:47:50;20.20;99.90
5711;DHT22;61291;52.524;13.422;2023-07-02T04:50:17;20.20;99.90
5711;DHT22;61291;52.524;13.422;2023-07-02T04:52:42;20.50;99.90
5711;DHT22;61291;52.524;13.422;2023-07-02T04:55:08;20.50;99.90
5711;DHT22;61291;52.524;13.422;2023-07-02T04:57:34;20.50;99.90
5711;DHT22;61291;52.524;13.422;2023-07-02T05:00:00;20.30;99.90
5711;DHT22;61291;52.524;13.422;2023-07-02T05:02:25;20.30;99.90
5711;DHT22;61291;52.524;13.422;2023-07-02T05:04:51;20.20;99.90
5711;DHT22;61291;52.524;13.422;2023-07-02T05:07:16;20.40;99.90
5711;DHT22;61291;52.524;13.422;2023-07-02T05:09:42;20.80;99.90
5711;DHT22;61291;52.524;13.422;2023-07-02T05:12:08;21.10;99.90
5711;DHT22;61291;52.524;13.422;2023-07-02T05:14:33;21.50;99.90
5711;DHT22;61291;52.524;13.422;2023-07-02T05:16:59;21.90;99.90
5711;DHT22;61291;52.524;13.422;2023-07-02T05:19:24;22.40;99.90
5711;DHT22;61291;52.524;13.422;2023-07-02T05:21:50;22.70;99.90
5711;DHT22;61291;52.524;13.422;2023-07-02T05:24:15;22.80;99.90
5711;DHT22;61291;52.524;13.422;2023-07-02T05:26:40;22.60;99.90
5711;DHT22;61291;52.524;13.422;2023-07-02T05:29:06;22.90;99.90
5711;DHT22;61291;52.524;13.422;2023-07-02T05:31:31;23.00;99.90
5711;DHT22;61291;52.524;13.422;2023-07-02T05:33:59;22.80;99.90
5711;DHT22;61291;52.524;13.422;2023-07-02T05:36:25;23.30;99.90
5711;DHT22;61291;52.524;13.422;2023-07-02T05:38:50;24.60;99.90
5711;DHT22;61291;52.524;13.422;2023-07-02T05:41:19;26.00;99.90
5711;DHT22;61291;52.524;13.422;2023-07-02T05:43:45;26.60;99.90
5711;DHT22;61291;52.524;13.422;2023-07-02T05:46:10;26.80;99.90
5711;DHT22;61291;52.524;13.422;2023-07-02T05:48:37;26.50;99.90
5711;DHT22;61291;52.524;13.422;2023-07-02T05:51:03;25.70;99.90
5711;DHT22;61291;52.524;13.422;2023-07-02T05:53:28;24.90;99.90
5711;DHT22;61291;52.524;13.422;2023-07-02T05:55:54;24.50;99.90
5711;DHT22;61291;52.524;13.422;2023-07-02T05:58:19;25.30;99.90
5711;DHT22;61291;52.524;13.422;2023-07-02T06:00:45;26.80;99.90
5711;DHT22;61291;52.524;13.422;2023-07-02T06:03:15;29.00;98.40
5711;DHT22;61291;52.524;13.422;2023-07-02T06:05:46;30.80;96.10
5711;DHT22;61291;52.524;13.422;2023-07-02T06:08:11;31.90;92.60
5711;DHT22;61291;52.524;13.422;2023-07-02T06:10:37;32.80;90.20
5711;DHT22;61291;52.524;13.422;2023-07-02T06:13:02;32.70;83.90
5711;DHT22;61291;52.524;13.422;2023-07-02T06:15:28;32.30;82.80
5711;DHT22;61291;52.524;13.422;2023-07-02T06:17:53;32.30;82.30
5711;DHT22;61291;52.524;13.422;2023-07-02T06:20:18;31.90;81.00
5711;DHT22;61291;52.524;13.422;2023-07-02T06:22:44;31.20;80.70
5711;DHT22;61291;52.524;13.422;2023-07-02T06:25:09;30.40;81.10
5711;DHT22;61291;52.524;13.422;2023-07-02T06:27:35;29.40;81.30
5711;DHT22;61291;52.524;13.422;2023-07-02T06:30:01;28.80;80.70
5711;DHT22;61291;52.524;13.422;2023-07-02T06:32:26;28.20;81.70
5711;DHT22;61291;52.524;13.422;2023-07-02T06:34:52;27.90;82.20
5711;DHT22;61291;52.524;13.422;2023-07-02T06:37:17;27.80;82.60
5711;DHT22;61291;52.524;13.422;2023-07-02T06:39:43;27.60;82.70
5711;DHT22;61291;52.524;13.422;2023-07-02T06:42:08;27.50;82.80
5711;DHT22;61291;52.524;13.422;2023-07-02T06:44:33;28.10;82.70
5711;DHT22;61291;52.524;13.422;2023-07-02T06:46:59;29.60;80.70
5711;DHT22;61291;52.524;13.422;2023-07-02T06:49:24;29.90;80.10
5711;DHT22;61291;52.524;13.422;2023-07-02T06:51:50;32.20;78.30
5711;DHT22;61291;52.524;13.422;2023-07-02T06:54:15;34.20;73.80
5711;DHT22;61291;52.524;13.422;2023-07-02T06:56:41;35.60;70.20
5711;DHT22;61291;52.524;13.422;2023-07-02T06:59:06;36.50;67.90
5711;DHT22;61291;52.524;13.422;2023-07-02T07:01:32;35.70;64.60
5711;DHT22;61291;52.524;13.422;2023-07-02T07:03:57;34.60;64.20
5711;DHT22;61291;52.524;13.422;2023-07-02T07:06:23;33.30;65.50
5711;DHT22;61291;52.524;13.422;2023-07-02T07:08:48;32.50;65.20
5711;DHT22;61291;52.524;13.422;2023-07-02T07:11:14;32.30;66.40
5711;DHT22;61291;52.524;13.422;2023-07-02T07:13:39;32.40;66.50
5711;DHT22;61291;52.524;13.422;2023-07-02T07:16:05;32.20;66.50
5711;DHT22;61291;52.524;13.422;2023-07-02T07:18:30;31.60;66.90
5711;DHT22;61291;52.524;13.422;2023-07-02T07:20:56;31.30;67.50
5711;DHT22;61291;52.524;13.422;2023-07-02T07:23:21;32.30;67.20
5711;DHT22;61291;52.524;13.422;2023-07-02T07:25:47;31.80;66.10
5711;DHT22;61291;52.524;13.422;2023-07-02T07:28:12;31.50;66.30
5711;DHT22;61291;52.524;13.422;2023-07-02T07:30:41;30.60;66.20
5711;DHT22;61291;52.524;13.422;2023-07-02T07:33:07;31.00;67.30
5711;DHT22;61291;52.524;13.422;2023-07-02T07:35:32;32.30;66.20
5711;DHT22;61291;52.524;13.422;2023-07-02T07:37:58;34.30;64.40
5711;DHT22;61291;52.524;13.422;2023-07-02T07:40:23;34.70;62.50
5711;DHT22;61291;52.524;13.422;2023-07-02T07:42:49;33.20;61.20
5711;DHT22;61291;52.524;13.422;2023-07-02T07:45:14;32.60;62.40
5711;DHT22;61291;52.524;13.422;2023-07-02T07:47:40;31.90;62.20
5711;DHT22;61291;52.524;13.422;2023-07-02T07:50:07;30.80;64.00
5711;DHT22;61291;52.524;13.422;2023-07-02T07:52:37;30.20;64.60
5711;DHT22;61291;52.524;13.422;2023-07-02T07:55:02;29.10;65.50
5711;DHT22;61291;52.524;13.422;2023-07-02T07:57:28;27.80;67.00
5711;DHT22;61291;52.524;13.422;2023-07-02T07:59:53;26.80;68.70
5711;DHT22;61291;52.524;13.422;2023-07-02T08:02:19;26.00;70.50
5711;DHT22;61291;52.524;13.422;2023-07-02T08:04:44;25.30;71.60
5711;DHT22;61291;52.524;13.422;2023-07-02T08:07:10;24.90;72.90
5711;DHT22;61291;52.524;13.422;2023-07-02T08:09:35;24.70;73.90
5711;DHT22;61291;52.524;13.422;2023-07-02T08:12:01;24.40;75.00
5711;DHT22;61291;52.524;13.422;2023-07-02T08:14:28;23.90;76.00
5711;DHT22;61291;52.524;13.422;2023-07-02T08:16:53;23.70;76.90
5711;DHT22;61291;52.524;13.422;2023-07-02T08:19:19;23.70;77.80
5711;DHT22;61291;52.524;13.422;2023-07-02T08:21:46;23.70;78.30
5711;DHT22;61291;52.524;13.422;2023-07-02T08:24:11;23.70;79.20
5711;DHT22;61291;52.524;13.422;2023-07-02T08:26:38;23.70;79.40
5711;DHT22;61291;52.524;13.422;2023-07-02T08:29:03;23.70;79.50
5711;DHT22;61291;52.524;13.422;2023-07-02T08:31:29;23.60;79.80
5711;DHT22;61291;52.524;13.422;2023-07-02T08:33:54;23.80;80.00
5711;DHT22;61291;52.524;13.422;2023-07-02T08:36:20;24.10;80.30
5711;DHT22;61291;52.524;13.422;2023-07-02T08:38:45;24.20;79.80
5711;DHT22;61291;52.524;13.422;2023-07-02T08:41:12;24.30;79.30
5711;DHT22;61291;52.524;13.422;2023-07-02T08:43:37;24.50;79.30
5711;DHT22;61291;52.524;13.422;2023-07-02T08:46:03;24.70;79.30
5711;DHT22;61291;52.524;13.422;2023-07-02T08:48:29;24.80;79.00
5711;DHT22;61291;52.524;13.422;2023-07-02T08:50:57;24.70;79.00
5711;DHT22;61291;52.524;13.422;2023-07-02T08:53:23;24.90;79.00
5711;DHT22;61291;52.524;13.422;2023-07-02T08:55:57;24.90;78.10
5711;DHT22;61291;52.524;13.422;2023-07-02T08:58:23;25.20;77.90
5711;DHT22;61291;52.524;13.422;2023-07-02T09:01:08;25.50;77.20
5711;DHT22;61291;52.524;13.422;2023-07-02T09:03:34;25.80;75.60
5711;DHT22;61291;52.524;13.422;2023-07-02T09:06:03;26.00;75.60
5711;DHT22;61291;52.524;13.422;2023-07-02T09:08:28;26.20;74.10
5711;DHT22;61291;52.524;13.422;2023-07-02T09:11:16;26.60;73.30
5711;DHT22;61291;52.524;13.422;2023-07-02T09:13:49;27.20;72.60
5711;DHT22;61291;52.524;13.422;2023-07-02T09:16:30;27.80;71.20
5711;DHT22;61291;52.524;13.422;2023-07-02T09:18:58;28.50;69.50
5711;DHT22;61291;52.524;13.422;2023-07-02T09:21:26;28.60;68.20
5711;DHT22;61291;52.524;13.422;2023-07-02T09:23:53;28.80;66.30
5711;DHT22;61291;52.524;13.422;2023-07-02T09:26:22;29.20;66.10
5711;DHT22;61291;52.524;13.422;2023-07-02T09:28:48;29.40;65.20
5711;DHT22;61291;52.524;13.422;2023-07-02T09:31:13;29.10;64.30
5711;DHT22;61291;52.524;13.422;2023-07-02T09:33:39;29.10;64.50
5711;DHT22;61291;52.524;13.422;2023-07-02T09:36:05;29.30;64.70
5711;DHT22;61291;52.524;13.422;2023-07-02T09:38:30;29.60;64.70
5711;DHT22;61291;52.524;13.422;2023-07-02T09:40:56;29.50;64.10
5711;DHT22;61291;52.524;13.422;2023-07-02T09:43:22;29.20;62.90
5711;DHT22;61291;52.524;13.422;2023-07-02T09:45:52;28.80;62.40
5711;DHT22;61291;52.524;13.422;2023-07-02T09:48:20;28.30;63.10
5711;DHT22;61291;52.524;13.422;2023-07-02T09:50:48;28.10;63.90
5711;DHT22;61291;52.524;13.422;2023-07-02T09:53:14;27.90;64.40
5711;DHT22;61291;52.524;13.422;2023-07-02T09:55:42;27.50;64.50
5711;DHT22;61291;52.524;13.422;2023-07-02T09:58:08;27.20;64.30
5711;DHT22;61291;52.524;13.422;2023-07-02T10:00:34;27.10;65.10
5711;DHT22;61291;52.524;13.422;2023-07-02T10:03:00;27.10;64.90
5711;DHT22;61291;52.524;13.422;2023-07-02T10:05:30;26.70;64.60
5711;DHT22;61291;52.524;13.422;2023-07-02T10:08:12;26.80;65.40
5711;DHT22;61291;52.524;13.422;2023-07-02T10:10:39;27.00;65.00
5711;DHT22;61291;52.524;13.422;2023-07-02T10:13:04;26.90;65.10
5711;DHT22;61291;52.524;13.422;2023-07-02T10:15:30;27.20;65.50
5711;DHT22;61291;52.524;13.422;2023-07-02T10:18:03;27.10;65.60
5711;DHT22;61291;52.524;13.422;2023-07-02T10:20:38;27.30;66.20
5711;DHT22;61291;52.524;13.422;2023-07-02T10:23:05;27.30;65.80
5711;DHT22;61291;52.524;13.422;2023-07-02T10:25:35;27.60;65.90
5711;DHT22;61291;52.524;13.422;2023-07-02T10:28:14;27.70;65.70
5711;DHT22;61291;52.524;13.422;2023-07-02T10:30:41;27.90;65.70
5711;DHT22;61291;52.524;13.422;2023-07-02T10:33:11;28.60;65.60
5711;DHT22;61291;52.524;13.422;2023-07-02T10:35:37;28.90;65.00
5711;DHT22;61291;52.524;13.422;2023-07-02T10:38:03;29.00;64.50
5711;DHT22;61291;52.524;13.422;2023-07-02T10:40:31;28.30;64.40
5711;DHT22;61291;52.524;13.422;2023-07-02T10:42:58;28.40;64.90
5711;DHT22;61291;52.524;13.422;2023-07-02T10:45:31;28.80;64.60
5711;DHT22;61291;52.524;13.422;2023-07-02T10:47:58;29.40;64.80
5711;DHT22;61291;52.524;13.422;2023-07-02T10:50:23;29.40;64.50
5711;DHT22;61291;52.524;13.422;2023-07-02T10:52:49;29.20;64.00
5711;DHT22;61291;52.524;13.422;2023-07-02T10:55:22;28.90;63.20
5711;DHT22;61291;52.524;13.422;2023-07-02T10:57:48;28.60;63.80
5711;DHT22;61291;52.524;13.422;2023-07-02T11:00:16;28.10;63.80
5711;DHT22;61291;52.524;13.422;2023-07-02T11:02:42;27.70;63.70
5711;DHT22;61291;52.524;13.422;2023-07-02T11:05:08;27.70;63.90
5711;DHT22;61291;52.524;13.422;2023-07-02T11:07:38;28.00;63.90
5711;DHT22;61291;52.524;13.422;2023-07-02T11:10:05;28.30;64.20
5711;DHT22;61291;52.524;13.422;2023-07-02T11:12:31;28.30;63.20
5711;DHT22;61291;52.524;13.422;2023-07-02T11:15:13;27.70;63.00
5711;DHT22;61291;52.524;13.422;2023-07-02T11:17:40;26.50;64.10
5711;DHT22;61291;52.524;13.422;2023-07-02T11:20:08;25.70;65.40
5711;DHT22;61291;52.524;13.422;2023-07-02T11:22:35;25.40;66.50
5711;DHT22;61291;52.524;13.422;2023-07-02T11:25:13;25.10;67.20
5711;DHT22;61291;52.524;13.422;2023-07-02T11:27:40;24.70;67.90
5711;DHT22;61291;52.524;13.422;2023-07-02T11:30:06;24.70;68.90
5711;DHT22;61291;52.524;13.422;2023-07-02T11:32:35;24.70;68.90
5711;DHT22;61291;52.524;13.422;2023-07-02T11:35:11;24.80;69.10
5711;DHT22;61291;52.524;13.422;2023-07-02T11:37:37;24.70;68.40
5711;DHT22;61291;52.524;13.422;2023-07-02T11:40:02;24.90;67.70
5711;DHT22;61291;52.524;13.422;2023-07-02T11:42:30;25.10;66.80
5711;DHT22;61291;52.524;13.422;2023-07-02T11:44:55;25.40;65.90
5711;DHT22;61291;52.524;13.422;2023-07-02T11:47:20;25.30;65.80
5711;DHT22;61291;52.524;13.422;2023-07-02T11:49:46;25.10;65.70
5711;DHT22;61291;52.524;13.422;2023-07-02T11:52:11;25.10;65.70
5711;DHT22;61291;52.524;13.422;2023-07-02T11:54:39;24.80;65.30
5711;DHT22;61291;52.524;13.422;2023-07-02T11:57:05;24.60;64.60
5711;DHT22;61291;52.524;13.422;2023-07-02T11:59:30;24.90;64.30
5711;DHT22;61291;52.524;13.422;2023-07-02T12:01:56;25.20;63.40
5711;DHT22;61291;52.524;13.422;2023-07-02T12:04:21;25.70;62.50
5711;DHT22;61291;52.524;13.422;2023-07-02T12:06:47;26.10;60.80
5711;DHT22;61291;52.524;13.422;2023-07-02T12:09:12;26.90;59.90
5711;DHT22;61291;52.524;13.422;2023-07-02T12:11:38;26.40;58.80
5711;DHT22;61291;52.524;13.422;2023-07-02T12:14:04;26.00;59.40
5711;DHT22;61291;52.524;13.422;2023-07-02T12:16:29;25.70;60.00
5711;DHT22;61291;52.524;13.422;2023-07-02T12:18:55;25.50;60.60
5711;DHT22;61291;52.524;13.422;2023-07-02T12:21:20;25.50;61.00
5711;DHT22;61291;52.524;13.422;2023-07-02T12:23:46;25.60;59.90
5711;DHT22;61291;52.524;13.422;2023-07-02T12:26:11;25.80;59.70
5711;DHT22;61291;52.524;13.422;2023-07-02T12:28:37;25.90;59.70
5711;DHT22;61291;52.524;13.422;2023-07-02T12:31:02;26.20;59.70
5711;DHT22;61291;52.524;13.422;2023-07-02T12:33:28;26.30;59.50
5711;DHT22;61291;52.524;13.422;2023-07-02T12:35:53;26.40;59.50
5711;DHT22;61291;52.524;13.422;2023-07-02T12:38:19;26.40;59.10
5711;DHT22;61291;52.524;13.422;2023-07-02T12:40:44;26.50;58.60
5711;DHT22;61291;52.524;13.422;2023-07-02T12:43:10;26.30;58.50
5711;DHT22;61291;52.524;13.422;2023-07-02T12:45:35;25.90;58.10
5711;DHT22;61291;52.524;13.422;2023-07-02T12:48:01;25.60;58.20
5711;DHT22;61291;52.524;13.422;2023-07-02T12:50:26;25.50;58.50
5711;DHT22;61291;52.524;13.422;2023-07-02T12:52:52;25.70;58.80
5711;DHT22;61291;52.524;13.422;2023-07-02T12:55:17;25.80;57.90
5711;DHT22;61291;52.524;13.422;2023-07-02T12:57:43;26.10;57.80
5711;DHT22;61291;52.524;13.422;2023-07-02T13:00:09;26.60;58.10
5711;DHT22;61291;52.524;13.422;2023-07-02T13:02:34;26.90;57.80
5711;DHT22;61291;52.524;13.422;2023-07-02T13:05:00;27.40;57.70
5711;DHT22;61291;52.524;13.422;2023-07-02T13:07:25;27.50;57.20
5711;DHT22;61291;52.524;13.422;2023-07-02T13:09:51;27.30;57.00
5711;DHT22;61291;52.524;13.422;2023-07-02T13:12:16;27.70;57.20
5711;DHT22;61291;52.524;13.422;2023-07-02T13:14:43;28.00;57.50
5711;DHT22;61291;52.524;13.422;2023-07-02T13:17:08;27.60;57.40
5711;DHT22;61291;52.524;13.422;2023-07-02T13:19:34;26.80;56.20
5711;DHT22;61291;52.524;13.422;2023-07-02T13:22:00;26.00;56.30
5711;DHT22;61291;52.524;13.422;2023-07-02T13:24:28;25.40;56.50
5711;DHT22;61291;52.524;13.422;2023-07-02T13:26:53;25.10;56.90
5711;DHT22;61291;52.524;13.422;2023-07-02T13:29:19;24.50;56.80
5711;DHT22;61291;52.524;13.422;2023-07-02T13:31:44;24.40;57.30
5711;DHT22;61291;52.524;13.422;2023-07-02T13:34:10;24.50;57.90
5711;DHT22;61291;52.524;13.422;2023-07-02T13:36:35;24.80;58.20
5711;DHT22;61291;52.524;13.422;2023-07-02T13:39:01;25.00;58.40
5711;DHT22;61291;52.524;13.422;2023-07-02T13:41:28;25.10;58.70
5711;DHT22;61291;52.524;13.422;2023-07-02T13:43:55;25.40;59.00
5711;DHT22;61291;52.524;13.422;2023-07-02T13:46:21;25.60;59.30
5711;DHT22;61291;52.524;13.422;2023-07-02T13:48:46;25.80;59.00
5711;DHT22;61291;52.524;13.422;2023-07-02T13:51:12;26.00;58.80
5711;DHT22;61291;52.524;13.422;2023-07-02T13:53:37;26.50;58.50
5711;DHT22;61291;52.524;13.422;2023-07-02T13:56:03;26.70;58.00
5711;DHT22;61291;52.524;13.422;2023-07-02T14:01:11;26.90;57.60
5711;DHT22;61291;52.524;13.422;2023-07-02T14:03:36;27.30;57.50
5711;DHT22;61291;52.524;13.422;2023-07-02T14:06:02;27.60;56.70
5711;DHT22;61291;52.524;13.422;2023-07-02T14:08:27;27.60;56.00
5711;DHT22;61291;52.524;13.422;2023-07-02T14:10:52;27.30;56.20
5711;DHT22;61291;52.524;13.422;2023-07-02T14:13:18;27.00;55.80
5711;DHT22;61291;52.524;13.422;2023-07-02T14:15:44;26.90;56.10
5711;DHT22;61291;52.524;13.422;2023-07-02T14:18:09;26.50;56.00
5711;DHT22;61291;52.524;13.422;2023-07-02T14:20:35;26.40;56.60
5711;DHT22;61291;52.524;13.422;2023-07-02T14:23:00;26.20;55.90
5711;DHT22;61291;52.524;13.422;2023-07-02T14:25:25;25.70;55.60
5711;DHT22;61291;52.524;13.422;2023-07-02T14:27:51;25.50;56.20
5711;DHT22;61291;52.524;13.422;2023-07-02T14:30:16;25.70;56.50
5711;DHT22;61291;52.524;13.422;2023-07-02T14:32:42;25.80;56.70
5711;DHT22;61291;52.524;13.422;2023-07-02T14:35:09;25.80;56.90
5711;DHT22;61291;52.524;13.422;2023-07-02T14:37:34;25.60;57.10
5711;DHT22;61291;52.524;13.422;2023-07-02T14:40:00;25.40;56.20
5711;DHT22;61291;52.524;13.422;2023-07-02T14:42:25;25.40;57.10
5711;DHT22;61291;52.524;13.422;2023-07-02T14:44:51;25.60;57.10
5711;DHT22;61291;52.524;13.422;2023-07-02T14:47:16;25.80;56.50
5711;DHT22;61291;52.524;13.422;2023-07-02T14:49:42;25.70;55.90
5711;DHT22;61291;52.524;13.422;2023-07-02T14:52:07;25.60;55.90
5711;DHT22;61291;52.524;13.422;2023-07-02T14:54:34;25.60;56.50
5711;DHT22;61291;52.524;13.422;2023-07-02T14:56:59;25.80;56.20
5711;DHT22;61291;52.524;13.422;2023-07-02T14:59:25;25.70;55.50
5711;DHT22;61291;52.524;13.422;2023-07-02T15:01:50;25.60;55.70
5711;DHT22;61291;52.524;13.422;2023-07-02T15:04:16;25.40;56.30
5711;DHT22;61291;52.524;13.422;2023-07-02T15:06:41;25.30;56.50
5711;DHT22;61291;52.524;13.422;2023-07-02T15:09:07;25.30;56.80
5711;DHT22;61291;52.524;13.422;2023-07-02T15:11:32;25.30;57.20
5711;DHT22;61291;52.524;13.422;2023-07-02T15:13:58;25.20;56.80
5711;DHT22;61291;52.524;13.422;2023-07-02T15:16:24;25.00;57.60
5711;DHT22;61291;52.524;13.422;2023-07-02T15:18:50;24.90;57.20
5711;DHT22;61291;52.524;13.422;2023-07-02T15:21:15;25.10;57.00
5711;DHT22;61291;52.524;13.422;2023-07-02T15:23:42;25.40;56.50
5711;DHT22;61291;52.524;13.422;2023-07-02T15:26:07;25.70;56.70
5711;DHT22;61291;52.524;13.422;2023-07-02T15:28:34;25.70;56.20